createdAt,value
2018-11-27T00:00:18.972Z,22.27
2018-11-27T00:02:47.621Z,20.97
2018-11-27T00:05:16.298Z,20.27
2018-11-27T00:07:59.896Z,21.93
2018-11-27T00:10:29.610Z,20.52
2018-11-27T00:12:58.326Z,21.70
2018-11-27T00:15:26.992Z,20.95
2018-11-27T00:17:55.659Z,20.25
2018-11-27T00:20:24.331Z,20.52
2018-11-27T00:22:53.002Z,20.65
2018-11-27T00:25:21.665Z,21.52
2018-11-27T00:27:50.327Z,20.65
2018-11-27T00:30:20.086Z,20.02
2018-11-27T00:32:48.746Z,21.40
2018-11-27T00:35:18.647Z,22.75
2018-11-27T00:37:47.339Z,21.82
2018-11-27T00:40:17.728Z,23.20
2018-11-27T00:42:46.463Z,24.02
2018-11-27T00:45:16.097Z,22.93
2018-11-27T00:47:45.709Z,23.30
2018-11-27T00:50:16.353Z,23.65
2018-11-27T00:52:45.004Z,23.95
2018-11-27T00:55:14.659Z,23.65
2018-11-27T00:57:44.246Z,22.70
2018-11-27T01:00:17.886Z,23.57
2018-11-27T01:02:46.646Z,23.92
2018-11-27T01:05:16.417Z,24.77
2018-11-27T01:07:45.093Z,22.17
2018-11-27T01:10:15.773Z,23.90
2018-11-27T01:12:44.475Z,24.32
2018-11-27T01:15:13.742Z,23.73
2018-11-27T01:17:44.725Z,23.32
2018-11-27T01:20:15.341Z,23.35
2018-11-27T01:22:44.101Z,22.80
2018-11-27T01:25:12.892Z,22.50
2018-11-27T01:27:41.558Z,24.32
2018-11-27T01:30:13.136Z,23.90
2018-11-27T01:32:41.795Z,22.82
2018-11-27T01:35:11.512Z,22.60
2018-11-27T01:37:40.185Z,22.77
2018-11-27T01:40:10.758Z,22.90
2018-11-27T01:42:39.420Z,23.50
2018-11-27T01:45:09.892Z,22.48
2018-11-27T01:47:38.557Z,23.95
2018-11-27T01:50:11.312Z,23.75
2018-11-27T01:52:39.993Z,23.47
2018-11-27T01:55:12.751Z,25.35
2018-11-27T01:57:41.418Z,23.07
2018-11-27T02:00:21.590Z,24.15
2018-11-27T02:02:50.721Z,23.27
2018-11-27T02:05:19.433Z,22.67
2018-11-27T02:07:48.110Z,22.62
2018-11-27T02:10:16.786Z,22.02
2018-11-27T02:12:46.381Z,23.22
2018-11-27T02:15:17.321Z,22.75
2018-11-27T02:17:45.976Z,24.30
2018-11-27T02:20:14.625Z,24.18
2018-11-27T02:22:50.041Z,23.70
2018-11-27T02:25:20.864Z,23.98
2018-11-27T02:27:49.520Z,24.12
2018-11-27T02:30:19.628Z,23.22
2018-11-27T02:32:48.307Z,22.98
2018-11-27T02:35:20.797Z,23.52
2018-11-27T02:37:53.298Z,22.98
2018-11-27T02:40:21.989Z,23.32
2018-11-27T02:42:50.615Z,23.83
2018-11-27T02:45:20.254Z,23.47
2018-11-27T02:47:49.886Z,25.72
2018-11-27T02:50:19.459Z,23.30
2018-11-27T02:52:48.106Z,23.75
2018-11-27T02:55:19.893Z,24.55
2018-11-27T02:57:48.558Z,23.42
2018-11-27T03:00:18.217Z,23.52
2018-11-27T03:02:46.895Z,24.37
2018-11-27T03:05:17.026Z,24.90
2018-11-27T03:07:45.706Z,23.85
2018-11-27T03:10:15.098Z,23.65
2018-11-27T03:12:43.775Z,24.00
2018-11-27T03:15:14.428Z,24.47
2018-11-27T03:17:43.145Z,23.92
2018-11-27T03:20:12.827Z,25.48
2018-11-27T03:22:41.514Z,25.52
2018-11-27T03:25:11.414Z,25.62
2018-11-27T03:27:40.080Z,25.55
2018-11-27T03:30:13.201Z,25.12
2018-11-27T03:32:42.076Z,25.70
2018-11-27T03:35:12.805Z,25.25
2018-11-27T03:37:41.817Z,26.12
2018-11-27T03:40:12.962Z,25.77
2018-11-27T03:42:41.624Z,26.02
2018-11-27T03:45:11.546Z,25.45
2018-11-27T03:47:40.269Z,25.97
2018-11-27T03:50:12.305Z,24.67
2018-11-27T03:52:40.992Z,25.02
2018-11-27T03:55:10.486Z,25.95
2018-11-27T03:57:39.154Z,24.90
2018-11-27T04:00:13.874Z,25.43
2018-11-27T04:02:42.914Z,25.35
2018-11-27T04:05:12.098Z,24.55
2018-11-27T04:07:40.749Z,25.20
2018-11-27T04:10:11.198Z,24.60
2018-11-27T04:12:39.887Z,24.87
2018-11-27T04:15:08.786Z,25.20
2018-11-27T04:17:37.468Z,24.43
2018-11-27T04:20:07.483Z,25.15
2018-11-27T04:22:36.280Z,25.15
2018-11-27T04:25:06.745Z,26.40
2018-11-27T04:27:35.418Z,26.02
2018-11-27T04:30:04.974Z,24.92
2018-11-27T04:32:33.677Z,25.57
2018-11-27T04:35:02.326Z,25.48
2018-11-27T04:37:30.999Z,25.43
2018-11-27T04:39:59.638Z,25.48
2018-11-27T04:42:28.398Z,24.52
2018-11-27T04:44:57.045Z,25.97
2018-11-27T04:47:25.788Z,25.23
2018-11-27T04:49:54.445Z,26.65
2018-11-27T04:52:23.138Z,25.97
2018-11-27T04:54:51.810Z,27.13
2018-11-27T04:57:20.475Z,26.00
2018-11-27T04:59:49.137Z,25.65
2018-11-27T05:02:17.797Z,26.48
2018-11-27T05:04:46.464Z,27.13
2018-11-27T05:07:15.152Z,28.45
2018-11-27T05:09:44.415Z,27.32
2018-11-27T05:12:13.080Z,31.52
2018-11-27T05:14:41.777Z,27.30
2018-11-27T05:17:10.459Z,26.68
2018-11-27T05:19:39.111Z,23.40
2018-11-27T05:22:07.768Z,24.52
2018-11-27T05:24:36.430Z,21.90
2018-11-27T05:27:05.106Z,21.75
2018-11-27T05:29:33.763Z,21.80
2018-11-27T05:32:02.430Z,22.22
2018-11-27T05:34:31.131Z,20.55
2018-11-27T05:36:59.873Z,19.67
2018-11-27T05:39:28.551Z,20.27
2018-11-27T05:41:57.213Z,20.10
2018-11-27T05:44:25.914Z,18.80
2018-11-27T05:46:54.576Z,19.73
2018-11-27T05:49:23.244Z,17.87
2018-11-27T05:51:51.938Z,19.00
2018-11-27T05:54:20.605Z,19.17
2018-11-27T05:56:49.261Z,18.37
2018-11-27T05:59:17.934Z,19.52
2018-11-27T06:01:46.638Z,21.82
2018-11-27T06:04:15.303Z,21.37
2018-11-27T06:06:43.960Z,20.57
2018-11-27T06:09:12.635Z,20.25
2018-11-27T06:11:41.314Z,21.12
2018-11-27T06:14:10.068Z,20.45
2018-11-27T06:16:38.693Z,23.15
2018-11-27T06:19:07.361Z,23.05
2018-11-27T06:21:36.119Z,23.92
2018-11-27T06:24:05.246Z,24.50
2018-11-27T06:26:33.925Z,23.47
2018-11-27T06:29:02.618Z,26.52
2018-11-27T06:31:31.375Z,26.65
2018-11-27T06:34:00.061Z,23.57
2018-11-27T06:36:28.721Z,27.40
2018-11-27T06:38:57.416Z,28.70
2018-11-27T06:41:26.094Z,28.45
2018-11-27T06:43:54.773Z,27.93
2018-11-27T06:46:23.434Z,28.45
2018-11-27T06:48:52.121Z,30.50
2018-11-27T06:51:20.819Z,29.05
2018-11-27T06:53:49.485Z,30.32
2018-11-27T06:56:18.168Z,30.15
2018-11-27T06:58:46.832Z,32.78
2018-11-27T07:01:15.512Z,30.95
2018-11-27T07:03:44.184Z,32.20
2018-11-27T07:06:12.852Z,31.97
2018-11-27T07:08:41.617Z,34.05
2018-11-27T07:11:10.276Z,32.35
2018-11-27T07:13:38.940Z,29.55
2018-11-27T07:16:07.628Z,32.05
2018-11-27T07:18:36.306Z,33.20
2018-11-27T07:21:05.893Z,31.20
2018-11-27T07:23:34.549Z,29.92
2018-11-27T07:26:03.210Z,29.95
2018-11-27T07:28:31.873Z,27.73
2018-11-27T07:31:00.557Z,30.45
2018-11-27T07:33:29.216Z,27.42
2018-11-27T07:35:57.899Z,30.23
2018-11-27T07:38:26.604Z,30.90
2018-11-27T07:40:55.292Z,31.73
2018-11-27T07:43:23.956Z,31.23
2018-11-27T07:45:55.256Z,31.55
2018-11-27T07:48:21.306Z,28.60
2018-11-27T07:50:49.999Z,27.95
2018-11-27T07:53:18.687Z,29.25
2018-11-27T07:55:47.433Z,28.45
2018-11-27T07:58:16.096Z,28.20
2018-11-27T08:00:44.891Z,26.15
2018-11-27T08:03:13.452Z,24.63
2018-11-27T08:05:42.126Z,22.95
2018-11-27T08:08:13.030Z,22.58
2018-11-27T08:10:42.310Z,24.32
2018-11-27T08:13:11.082Z,22.98
2018-11-27T08:15:39.771Z,28.20
2018-11-27T08:18:09.394Z,25.45
2018-11-27T08:20:38.074Z,21.27
2018-11-27T08:23:07.996Z,21.82
2018-11-27T08:25:36.679Z,21.82
2018-11-27T08:28:06.471Z,19.30
2018-11-27T08:30:35.174Z,20.43
2018-11-27T08:33:03.856Z,19.73
2018-11-27T08:35:32.607Z,20.30
2018-11-27T08:38:01.717Z,18.12
2018-11-27T08:40:31.901Z,20.32
2018-11-27T08:43:00.644Z,19.25
2018-11-27T08:45:29.294Z,20.15
2018-11-27T08:47:57.956Z,24.72
2018-11-27T08:50:27.393Z,21.90
2018-11-27T08:53:03.086Z,28.52
2018-11-27T08:55:37.971Z,21.23
2018-11-27T08:58:15.229Z,21.02
2018-11-27T09:00:43.910Z,22.13
2018-11-27T09:03:12.563Z,23.47
2018-11-27T09:05:41.227Z,22.55
2018-11-27T09:08:09.889Z,21.15
2018-11-27T09:10:38.606Z,22.85
2018-11-27T09:13:07.322Z,23.02
2018-11-27T09:15:36.410Z,23.67
2018-11-27T09:18:20.180Z,26.02
2018-11-27T09:20:48.862Z,24.43
2018-11-27T09:23:17.535Z,24.43
2018-11-27T09:25:46.214Z,24.23
2018-11-27T09:28:14.872Z,25.05
2018-11-27T09:30:43.550Z,24.27
2018-11-27T09:33:12.200Z,23.42
2018-11-27T09:35:40.865Z,23.65
2018-11-27T09:38:09.509Z,23.85
2018-11-27T09:40:38.185Z,23.55
2018-11-27T09:43:07.117Z,24.67
2018-11-27T09:45:37.012Z,23.57
2018-11-27T09:48:05.753Z,24.63
2018-11-27T09:50:34.426Z,24.43
2018-11-27T09:53:03.118Z,24.30
2018-11-27T09:55:31.781Z,22.75
2018-11-27T09:58:00.456Z,24.00
2018-11-27T10:00:30.726Z,25.68
2018-11-27T10:03:15.876Z,24.75
2018-11-27T10:05:44.597Z,21.15
2018-11-27T10:08:13.258Z,21.55
2018-11-27T10:10:41.938Z,21.05
2018-11-27T10:13:10.599Z,23.70
2018-11-27T10:15:39.292Z,22.98
2018-11-27T10:18:08.022Z,22.77
2018-11-27T10:20:37.945Z,21.02
2018-11-27T10:23:10.098Z,21.30
2018-11-27T10:25:38.774Z,20.82
2018-11-27T10:28:07.526Z,21.82
2018-11-27T10:30:36.244Z,18.85
2018-11-27T10:33:10.163Z,17.85
2018-11-27T10:35:41.865Z,18.20
2018-11-27T10:38:10.524Z,17.73
2018-11-27T10:40:39.222Z,16.62
2018-11-27T10:43:07.898Z,17.62
2018-11-27T10:45:36.594Z,17.50
2018-11-27T10:48:05.298Z,17.52
2018-11-27T10:50:34.014Z,19.90
2018-11-27T10:53:02.704Z,18.60
2018-11-27T10:55:31.379Z,18.57
2018-11-27T10:58:00.065Z,18.98
2018-11-27T11:00:34.203Z,17.82
2018-11-27T11:03:08.192Z,18.95
2018-11-27T11:05:37.914Z,17.57
2018-11-27T11:08:06.583Z,18.17
2018-11-27T11:10:35.260Z,18.82
2018-11-27T11:13:03.926Z,18.70
2018-11-27T11:15:32.593Z,17.15
2018-11-27T11:18:01.347Z,18.05
2018-11-27T11:20:30.054Z,19.90
2018-11-27T11:22:58.735Z,17.98
2018-11-27T11:25:27.402Z,18.73
2018-11-27T11:27:57.359Z,16.55
2018-11-27T11:30:26.019Z,15.05
2018-11-27T11:32:54.694Z,14.43
2018-11-27T11:35:23.358Z,15.05
2018-11-27T11:37:52.016Z,14.15
2018-11-27T11:40:22.049Z,15.50
2018-11-27T11:42:55.889Z,14.63
2018-11-27T11:45:24.616Z,18.25
2018-11-27T11:47:53.319Z,17.67
2018-11-27T11:50:23.954Z,17.60
2018-11-27T11:52:57.128Z,17.30
2018-11-27T11:55:25.790Z,17.25
2018-11-27T11:57:54.489Z,17.60
2018-11-27T12:00:27.314Z,16.30
2018-11-27T12:02:56.064Z,16.82
2018-11-27T12:05:25.205Z,16.35
2018-11-27T12:07:53.393Z,15.78
2018-11-27T12:10:22.071Z,16.02
2018-11-27T12:12:50.743Z,16.82
2018-11-27T12:15:19.705Z,15.90
2018-11-27T12:17:48.729Z,16.42
2018-11-27T12:20:18.643Z,16.30
2018-11-27T12:22:48.661Z,16.05
2018-11-27T12:25:17.325Z,16.77
2018-11-27T12:27:45.986Z,16.82
2018-11-27T12:30:22.065Z,16.17
2018-11-27T12:32:50.858Z,17.73
2018-11-27T12:35:20.070Z,17.20
2018-11-27T12:37:48.757Z,16.30
2018-11-27T12:40:23.524Z,16.97
2018-11-27T12:42:52.579Z,17.30
2018-11-27T12:45:22.477Z,16.48
2018-11-27T12:47:51.486Z,18.02
2018-11-27T12:50:24.393Z,16.37
2018-11-27T12:52:53.066Z,18.25
2018-11-27T12:55:22.816Z,17.12
2018-11-27T12:57:51.509Z,17.12
2018-11-27T13:00:21.237Z,17.98
2018-11-27T13:02:50.042Z,17.65
2018-11-27T13:05:21.081Z,17.42
2018-11-27T13:07:50.710Z,18.30
2018-11-27T13:10:19.381Z,18.37
2018-11-27T13:12:48.043Z,17.82
2018-11-27T13:15:17.812Z,18.07
2018-11-27T13:17:47.177Z,17.95
2018-11-27T13:20:16.883Z,18.32
2018-11-27T13:22:45.678Z,18.27
2018-11-27T13:25:16.515Z,19.92
2018-11-27T13:27:45.180Z,19.42
2018-11-27T13:30:24.026Z,18.15
2018-11-27T13:32:57.505Z,17.98
2018-11-27T13:35:26.188Z,18.40
2018-11-27T13:37:54.874Z,18.87
2018-11-27T13:40:23.545Z,18.62
2018-11-27T13:42:52.423Z,18.95
2018-11-27T13:45:21.127Z,17.75
2018-11-27T13:47:49.796Z,19.05
2018-11-27T13:50:25.289Z,16.45
2018-11-27T13:52:53.968Z,17.90
2018-11-27T13:55:22.833Z,17.73
2018-11-27T13:57:51.513Z,16.70
2018-11-27T14:00:20.651Z,16.87
2018-11-27T14:02:51.731Z,18.25
2018-11-27T14:05:21.521Z,16.55
2018-11-27T14:07:50.266Z,15.30
2018-11-27T14:10:19.036Z,16.37
2018-11-27T14:12:47.717Z,16.05
2018-11-27T14:15:20.522Z,16.32
2018-11-27T14:17:49.677Z,16.15
2018-11-27T14:20:18.343Z,16.12
2018-11-27T14:22:47.867Z,17.75
2018-11-27T14:25:16.717Z,17.35
2018-11-27T14:27:45.875Z,17.70
2018-11-27T14:30:20.655Z,17.50
2018-11-27T14:32:49.657Z,17.70
2018-11-27T14:35:19.312Z,16.10
2018-11-27T14:37:50.113Z,17.12
2018-11-27T14:40:20.515Z,17.62
2018-11-27T14:42:49.219Z,17.37
2018-11-27T14:45:20.018Z,18.27
2018-11-27T14:47:49.765Z,16.95
2018-11-27T14:50:18.438Z,17.67
2018-11-27T14:52:47.084Z,18.45
2018-11-27T14:55:19.035Z,19.23
2018-11-27T14:57:47.814Z,18.02
2018-11-27T15:00:17.667Z,16.27
2018-11-27T15:02:46.320Z,16.90
2018-11-27T15:05:19.353Z,17.12
2018-11-27T15:07:48.028Z,17.12
2018-11-27T15:10:16.690Z,18.10
2018-11-27T15:12:46.028Z,18.25
2018-11-27T15:15:14.686Z,17.67
2018-11-27T15:17:43.363Z,17.82
2018-11-27T15:20:14.342Z,19.40
2018-11-27T15:22:43.042Z,18.77
2018-11-27T15:25:11.710Z,18.70
2018-11-27T15:27:40.388Z,18.77
2018-11-27T15:30:13.387Z,19.52
2018-11-27T15:32:42.174Z,19.98
2018-11-27T15:35:11.721Z,18.85
2018-11-27T15:37:40.425Z,19.32
2018-11-27T15:40:11.697Z,20.10
2018-11-27T15:42:40.380Z,20.55
2018-11-27T15:45:10.705Z,19.35
2018-11-27T15:47:39.378Z,20.55
2018-11-27T15:50:09.134Z,19.95
2018-11-27T15:52:37.829Z,19.52
2018-11-27T15:55:18.558Z,20.02
2018-11-27T15:57:48.479Z,20.60
2018-11-27T16:00:18.691Z,20.57
2018-11-27T16:02:47.387Z,20.23
2018-11-27T16:05:16.855Z,19.27
2018-11-27T16:07:45.573Z,20.80
2018-11-27T16:10:16.477Z,22.48
2018-11-27T16:12:45.161Z,23.45
2018-11-27T16:15:17.313Z,21.50
2018-11-27T16:17:45.904Z,20.27
2018-11-27T16:20:16.749Z,21.82
2018-11-27T16:22:47.514Z,19.12
2018-11-27T16:25:17.195Z,20.02
2018-11-27T16:27:46.086Z,19.52
2018-11-27T16:30:17.882Z,21.62
2018-11-27T16:32:46.551Z,23.60
2018-11-27T16:35:15.627Z,23.87
2018-11-27T16:37:45.493Z,22.02
2018-11-27T16:40:16.198Z,20.40
2018-11-27T16:42:44.861Z,18.00
2018-11-27T16:45:14.588Z,18.65
2018-11-27T16:47:43.588Z,17.80
2018-11-27T16:50:13.281Z,18.45
2018-11-27T16:52:42.008Z,17.45
2018-11-27T16:55:11.737Z,17.42
2018-11-27T16:57:40.418Z,17.17
2018-11-27T17:00:13.966Z,17.05
2018-11-27T17:02:42.671Z,15.45
2018-11-27T17:05:11.338Z,15.23
2018-11-27T17:07:40.118Z,16.10
2018-11-27T17:10:11.467Z,15.78
2018-11-27T17:12:40.153Z,15.20
2018-11-27T17:15:14.032Z,16.05
2018-11-27T17:17:42.706Z,16.93
2018-11-27T17:20:16.874Z,16.07
2018-11-27T17:22:45.558Z,14.83
2018-11-27T17:25:14.213Z,15.28
2018-11-27T17:27:43.018Z,14.23
2018-11-27T17:30:17.138Z,13.65
2018-11-27T17:32:46.403Z,14.83
2018-11-27T17:35:15.064Z,14.83
2018-11-27T18:03:17.197Z,17.00
2018-11-27T18:07:26.714Z,16.00
2018-11-27T18:26:18.959Z,33.60
2018-11-27T18:29:52.769Z,29.70
2018-11-27T20:10:46.835Z,20.20
2018-11-27T20:13:15.498Z,20.87
2018-11-27T20:15:44.182Z,19.73
2018-11-27T20:18:12.845Z,19.37
2018-11-27T20:20:41.512Z,18.07
2018-11-27T20:23:10.180Z,17.07
2018-11-27T20:25:38.853Z,18.12
2018-11-27T20:28:08.828Z,15.65
2018-11-27T20:30:39.196Z,16.45
2018-11-27T20:33:07.901Z,16.67
2018-11-27T20:35:36.583Z,16.10
2018-11-27T20:38:07.210Z,17.73
2018-11-27T20:40:35.918Z,17.32
2018-11-27T20:43:04.604Z,16.65
2018-11-27T20:45:33.290Z,14.83
2018-11-27T20:48:08.122Z,15.05
2018-11-27T20:50:36.853Z,16.12
2018-11-27T20:53:05.504Z,16.10
2018-11-27T20:55:34.377Z,14.65
2018-11-27T20:58:03.128Z,14.58
2018-11-27T21:00:35.613Z,16.27
2018-11-27T21:03:04.695Z,13.25
2018-11-27T21:05:33.379Z,15.83
2018-11-27T21:08:02.036Z,15.23
2018-11-27T21:10:30.712Z,15.18
2018-11-27T21:12:59.392Z,14.30
2018-11-27T21:15:28.057Z,15.75
2018-11-27T21:17:56.749Z,13.18
2018-11-27T21:20:25.445Z,16.02
2018-11-27T21:22:54.112Z,15.93
2018-11-27T21:25:25.376Z,15.23
2018-11-27T21:28:01.622Z,15.05
2018-11-27T21:30:30.289Z,14.20
2018-11-27T21:32:58.966Z,16.23
2018-11-27T21:35:27.636Z,15.30
2018-11-27T21:37:56.314Z,16.12
2018-11-27T21:40:24.977Z,14.80
2018-11-27T21:42:53.631Z,16.10
2018-11-27T21:45:25.341Z,15.28
2018-11-27T21:47:54.678Z,16.20
2018-11-27T21:50:28.914Z,12.93
2018-11-27T21:52:58.456Z,17.27
2018-11-27T21:55:27.138Z,14.38
2018-11-27T21:57:55.802Z,15.35
2018-11-27T22:00:25.416Z,14.58
2018-11-27T22:02:54.336Z,14.75
2018-11-27T22:05:23.014Z,14.78
2018-11-27T22:07:51.793Z,13.20
2018-11-27T22:10:21.795Z,16.50
2018-11-27T22:12:58.253Z,13.55
2018-11-27T22:15:29.638Z,13.62
2018-11-27T22:17:58.301Z,12.58
2018-11-27T22:20:26.980Z,13.80
2018-11-27T22:22:55.648Z,13.60
2018-11-27T22:25:24.347Z,14.20
2018-11-27T22:27:53.015Z,13.00
2018-11-27T22:30:21.837Z,15.72
2018-11-27T22:32:52.510Z,14.40
2018-11-27T22:35:21.310Z,14.47
2018-11-27T22:37:49.987Z,13.43
2018-11-27T22:40:21.065Z,14.23
2018-11-27T22:42:50.401Z,13.85
2018-11-27T22:45:21.419Z,13.40
2018-11-27T22:47:50.128Z,13.55
2018-11-27T22:50:19.174Z,14.20
2018-11-27T22:52:47.833Z,14.38
2018-11-27T22:55:16.529Z,12.98
2018-11-27T22:57:45.208Z,13.50
2018-11-27T23:00:27.467Z,14.07
2018-11-27T23:02:56.158Z,13.62
2018-11-27T23:05:24.847Z,13.25
2018-11-27T23:07:53.522Z,13.48
2018-11-27T23:10:22.238Z,15.03
2018-11-27T23:12:50.899Z,14.05
2018-11-27T23:15:20.616Z,12.60
2018-11-27T23:17:49.322Z,15.13
2018-11-27T23:20:18.920Z,14.55
2018-11-27T23:22:47.575Z,14.23
2018-11-27T23:25:17.172Z,13.05
2018-11-27T23:27:45.877Z,15.30
2018-11-27T23:30:16.703Z,14.00
2018-11-27T23:32:45.416Z,15.35
2018-11-27T23:35:14.107Z,14.55
2018-11-27T23:37:42.785Z,15.55
2018-11-27T23:40:12.550Z,15.63
2018-11-27T23:42:41.437Z,15.80
2018-11-27T23:45:12.102Z,14.35
2018-11-27T23:47:40.785Z,15.03
2018-11-27T23:50:10.598Z,15.48
2018-11-27T23:52:39.285Z,16.27
2018-11-27T23:55:08.987Z,16.90
2018-11-27T23:57:37.870Z,17.17
